createdAt,value
2023-06-30T00:04:54.418Z,15.63
2023-06-30T00:09:55.993Z,15.53
2023-06-30T00:14:57.538Z,15.49
2023-06-30T00:20:00.159Z,15.49
2023-06-30T00:25:02.003Z,15.49
2023-06-30T00:30:03.894Z,15.40
2023-06-30T00:35:05.898Z,15.38
2023-06-30T00:40:08.042Z,15.35
2023-06-30T00:45:10.243Z,15.31
2023-06-30T00:50:13.519Z,15.24
2023-06-30T00:55:16.193Z,15.25
2023-06-30T01:00:18.345Z,15.26
2023-06-30T01:05:40.722Z,15.21
2023-06-30T01:10:45.143Z,15.18
2023-06-30T01:15:48.377Z,15.17
2023-06-30T01:20:52.047Z,15.16
2023-06-30T01:25:54.150Z,15.18
2023-06-30T01:30:57.490Z,15.18
2023-06-30T01:35:59.190Z,15.16
2023-06-30T01:41:01.955Z,15.07
2023-06-30T01:46:04.590Z,15.07
2023-06-30T01:51:06.820Z,15.05
2023-06-30T01:56:08.470Z,15.08
2023-06-30T02:01:09.965Z,15.03
2023-06-30T02:06:11.574Z,14.98
2023-06-30T02:11:13.076Z,14.99
2023-06-30T02:16:14.529Z,15.01
2023-06-30T02:21:16.114Z,15.03
2023-06-30T02:26:17.666Z,15.01
2023-06-30T02:31:19.172Z,14.92
2023-06-30T02:36:20.667Z,14.90
2023-06-30T02:41:22.101Z,14.84
2023-06-30T02:46:23.785Z,14.93
2023-06-30T02:51:25.253Z,14.98
2023-06-30T02:56:26.893Z,14.96
2023-06-30T03:01:28.521Z,14.92
2023-06-30T03:06:30.013Z,14.95
2023-06-30T03:11:31.624Z,14.98
2023-06-30T03:16:33.272Z,14.97
2023-06-30T03:21:34.779Z,15.00
2023-06-30T03:26:36.184Z,14.98
2023-06-30T03:31:37.630Z,14.95
2023-06-30T03:36:39.224Z,14.94
2023-06-30T03:41:40.663Z,14.92
2023-06-30T03:46:42.231Z,14.93
2023-06-30T03:51:43.805Z,14.97
2023-06-30T03:56:45.323Z,14.95
2023-06-30T04:01:46.904Z,14.97
2023-06-30T04:06:48.476Z,14.98
2023-06-30T04:11:50.022Z,14.96
2023-06-30T04:16:51.593Z,14.99
2023-06-30T04:21:53.177Z,15.03
2023-06-30T04:26:54.625Z,15.00
2023-06-30T04:31:56.731Z,15.01
2023-06-30T04:36:58.249Z,15.05
2023-06-30T04:42:00.198Z,15.11
2023-06-30T04:47:01.819Z,15.14
2023-06-30T04:52:03.569Z,15.15
2023-06-30T04:57:06.390Z,15.15
2023-06-30T05:02:07.826Z,15.20
2023-06-30T05:07:10.998Z,15.23
2023-06-30T05:12:13.962Z,15.28
2023-06-30T05:17:15.785Z,15.38
2023-06-30T05:22:17.481Z,15.44
2023-06-30T05:27:19.585Z,15.45
2023-06-30T05:32:21.230Z,15.53
2023-06-30T05:37:22.777Z,15.59
2023-06-30T05:42:24.283Z,15.63
2023-06-30T05:47:25.745Z,15.67
2023-06-30T05:52:28.292Z,15.75
2023-06-30T05:57:29.700Z,15.79
2023-06-30T06:02:31.231Z,15.83
2023-06-30T06:07:33.257Z,15.83
2023-06-30T06:12:34.830Z,15.89
2023-06-30T06:17:37.020Z,15.94
2023-06-30T06:22:38.549Z,16.05
2023-06-30T06:27:40.034Z,16.07
2023-06-30T06:32:41.527Z,16.13
2023-06-30T06:37:43.116Z,16.21
2023-06-30T06:42:44.552Z,16.26
2023-06-30T06:48:17.000Z,16.35
2023-06-30T06:53:23.923Z,16.45
2023-06-30T06:58:27.719Z,16.49
2023-06-30T07:03:29.279Z,16.59
2023-06-30T07:08:35.995Z,16.64
2023-06-30T07:13:39.231Z,16.75
2023-06-30T07:18:41.101Z,16.81
2023-06-30T07:23:42.757Z,16.92
2023-06-30T07:28:44.418Z,16.98
2023-06-30T07:33:46.028Z,17.10
2023-06-30T07:38:47.632Z,17.16
2023-06-30T07:43:49.216Z,17.29
2023-06-30T07:48:50.749Z,17.31
2023-06-30T07:53:52.341Z,17.44
2023-06-30T07:58:53.777Z,17.52
2023-06-30T08:03:55.505Z,17.58
2023-06-30T08:08:57.317Z,17.67
2023-06-30T08:14:01.000Z,17.77
2023-06-30T08:19:02.881Z,17.82
2023-06-30T08:24:04.772Z,17.91
2023-06-30T08:29:06.264Z,17.97
2023-06-30T08:34:09.638Z,18.03
2023-06-30T08:39:12.861Z,18.12
2023-06-30T08:44:15.889Z,18.15
2023-06-30T08:49:17.782Z,18.21
2023-06-30T08:54:19.742Z,18.33
2023-06-30T08:59:21.485Z,18.38
2023-06-30T09:04:24.271Z,18.50
2023-06-30T09:09:32.860Z,18.65
2023-06-30T09:14:35.364Z,18.73
2023-06-30T09:19:37.181Z,18.81
2023-06-30T09:24:38.752Z,18.89
2023-06-30T09:29:40.807Z,18.99
2023-06-30T09:34:42.350Z,19.11
2023-06-30T09:39:50.797Z,19.19
2023-06-30T09:44:53.387Z,19.35
2023-06-30T09:49:55.022Z,19.45
2023-06-30T09:54:56.500Z,19.54
2023-06-30T10:00:01.009Z,19.71
2023-06-30T10:05:02.535Z,19.81
2023-06-30T10:10:04.449Z,19.86
2023-06-30T10:15:09.756Z,19.91
2023-06-30T10:20:11.946Z,19.93
2023-06-30T10:25:18.086Z,19.89
2023-06-30T10:30:20.046Z,19.95
2023-06-30T10:35:22.746Z,19.97
2023-06-30T10:40:28.587Z,20.03
2023-06-30T10:45:32.007Z,20.17
2023-06-30T10:50:53.941Z,20.27
2023-06-30T10:55:58.581Z,20.28
2023-06-30T11:01:07.134Z,20.42
2023-06-30T11:06:20.779Z,20.47
2023-06-30T11:11:22.704Z,20.54
2023-06-30T11:16:29.785Z,20.63
2023-06-30T11:21:31.816Z,20.76
2023-06-30T11:26:37.052Z,20.79
2023-06-30T11:31:38.488Z,21.00
2023-06-30T11:36:39.917Z,21.05
2023-06-30T11:41:41.394Z,21.05
2023-06-30T11:46:42.913Z,21.15
2023-06-30T11:51:44.465Z,21.28
2023-06-30T11:56:45.965Z,21.40
2023-06-30T12:01:47.421Z,21.51
2023-06-30T12:06:50.026Z,21.61
2023-06-30T12:11:51.486Z,21.58
2023-06-30T12:16:53.729Z,21.69
2023-06-30T12:22:02.793Z,21.73
2023-06-30T12:27:07.014Z,21.67
2023-06-30T12:32:17.611Z,21.63
2023-06-30T12:37:20.998Z,21.66
2023-06-30T12:42:23.947Z,21.59
2023-06-30T12:47:25.486Z,21.55
2023-06-30T12:52:26.976Z,21.37
2023-06-30T12:57:28.758Z,21.20
2023-06-30T13:02:30.701Z,21.12
2023-06-30T13:07:35.299Z,21.08
2023-06-30T13:12:41.051Z,21.09
2023-06-30T13:17:43.469Z,21.05
2023-06-30T13:22:56.949Z,21.13
2023-06-30T13:28:06.885Z,21.20
2023-06-30T13:33:08.998Z,21.33
2023-06-30T13:38:12.403Z,21.33
2023-06-30T13:43:13.851Z,21.33
2023-06-30T13:48:15.356Z,21.44
2023-06-30T13:53:16.863Z,21.71
2023-06-30T13:58:18.321Z,21.78
2023-06-30T14:03:19.802Z,21.95
2023-06-30T14:08:21.425Z,22.20
2023-06-30T14:13:22.931Z,22.42
2023-06-30T14:18:24.409Z,22.57
2023-06-30T14:23:25.923Z,22.33
2023-06-30T14:28:27.386Z,22.34
2023-06-30T14:33:28.821Z,22.40
2023-06-30T14:38:30.632Z,22.44
2023-06-30T14:43:32.117Z,22.43
2023-06-30T14:48:33.669Z,22.44
2023-06-30T14:53:35.247Z,22.34
2023-06-30T14:58:37.371Z,22.17
2023-06-30T15:03:38.996Z,22.14
2023-06-30T15:08:40.569Z,22.03
2023-06-30T15:13:42.030Z,21.74
2023-06-30T15:18:43.551Z,21.63
2023-06-30T15:23:44.997Z,21.60
2023-06-30T15:28:46.528Z,21.77
2023-06-30T15:33:48.166Z,22.01
2023-06-30T15:38:49.648Z,22.04
2023-06-30T15:43:51.585Z,22.04
2023-06-30T15:48:53.128Z,22.20
2023-06-30T15:53:54.631Z,22.28
2023-06-30T15:58:56.256Z,22.44
2023-06-30T16:03:57.879Z,22.69
2023-06-30T16:08:59.489Z,22.72
2023-06-30T16:14:00.995Z,22.53
2023-06-30T16:19:02.549Z,22.57
2023-06-30T16:24:04.355Z,22.59
2023-06-30T16:29:05.830Z,22.49
2023-06-30T16:34:07.468Z,22.52
2023-06-30T16:39:09.726Z,22.40
2023-06-30T16:44:11.223Z,22.34
2023-06-30T16:49:12.750Z,22.14
2023-06-30T16:54:14.300Z,22.07
2023-06-30T16:59:16.134Z,22.01
2023-06-30T17:04:17.633Z,21.76
2023-06-30T17:09:20.419Z,21.69
2023-06-30T17:14:22.064Z,21.55
2023-06-30T17:19:23.629Z,21.42
2023-06-30T17:24:25.753Z,21.21
2023-06-30T17:29:27.262Z,21.02
2023-06-30T17:34:28.788Z,21.02
2023-06-30T17:39:30.514Z,20.94
2023-06-30T17:44:32.375Z,20.99
2023-06-30T17:49:34.807Z,20.74
2023-06-30T17:54:36.358Z,20.69
2023-06-30T17:59:37.834Z,20.50
2023-06-30T18:04:39.481Z,20.49
2023-06-30T18:09:44.924Z,20.40
2023-06-30T18:14:46.531Z,20.28
2023-06-30T18:19:48.072Z,20.24
2023-06-30T18:24:49.528Z,20.15
2023-06-30T18:29:52.599Z,20.07
2023-06-30T18:34:54.317Z,20.11
2023-06-30T18:39:56.604Z,19.93
2023-06-30T18:44:58.031Z,19.76
2023-06-30T18:49:59.456Z,19.75
2023-06-30T18:55:00.934Z,19.65
2023-06-30T19:00:04.894Z,19.58
2023-06-30T19:05:07.175Z,19.52
2023-06-30T19:10:10.414Z,19.47
2023-06-30T19:15:11.865Z,19.31
2023-06-30T19:20:13.523Z,19.29
2023-06-30T19:25:16.705Z,19.21
2023-06-30T19:30:18.516Z,19.24
2023-06-30T19:35:20.519Z,19.25
2023-06-30T19:40:24.814Z,19.14
2023-06-30T19:45:26.763Z,19.22
2023-06-30T19:50:28.980Z,19.08
2023-06-30T19:55:32.882Z,18.98
2023-06-30T20:00:34.768Z,18.77
2023-06-30T20:05:36.813Z,18.70
2023-06-30T20:10:38.541Z,18.59
2023-06-30T20:15:40.039Z,18.52
2023-06-30T20:20:41.580Z,18.48
2023-06-30T20:25:43.124Z,18.45
2023-06-30T20:30:44.776Z,18.46
2023-06-30T20:35:46.555Z,18.37
2023-06-30T20:40:48.267Z,18.36
2023-06-30T20:45:50.002Z,18.32
2023-06-30T20:50:51.441Z,18.30
2023-06-30T20:55:56.026Z,18.25
2023-06-30T21:00:57.565Z,18.11
2023-06-30T21:05:59.010Z,18.03
2023-06-30T21:11:00.507Z,18.01
2023-06-30T21:16:02.269Z,18.10
2023-06-30T21:21:03.882Z,18.04
2023-06-30T21:26:05.269Z,17.91
2023-06-30T21:31:06.686Z,17.94
2023-06-30T21:36:08.163Z,17.93
2023-06-30T21:41:09.777Z,17.88
2023-06-30T21:46:16.133Z,17.77
2023-06-30T21:51:17.784Z,17.73
2023-06-30T21:56:19.519Z,17.67
2023-06-30T22:01:25.574Z,17.55
2023-06-30T22:06:30.329Z,17.51
2023-06-30T22:11:31.856Z,17.61
2023-06-30T22:16:33.497Z,17.61
2023-06-30T22:21:34.967Z,17.61
2023-06-30T22:26:36.502Z,17.63
2023-06-30T22:31:38.103Z,17.62
2023-06-30T22:36:39.639Z,17.52
2023-06-30T22:41:41.096Z,17.51
2023-06-30T22:46:42.631Z,17.45
2023-06-30T22:51:44.373Z,17.40
2023-06-30T22:56:46.080Z,17.43
2023-06-30T23:01:47.630Z,17.38
2023-06-30T23:06:49.135Z,17.39
2023-06-30T23:11:50.705Z,17.41
2023-06-30T23:16:52.406Z,17.36
2023-06-30T23:22:06.764Z,17.30
2023-06-30T23:27:08.451Z,17.30
2023-06-30T23:32:10.997Z,17.38
2023-06-30T23:37:14.367Z,17.39
2023-06-30T23:42:15.908Z,17.32
2023-06-30T23:47:17.548Z,17.29
2023-06-30T23:52:19.334Z,17.28
2023-06-30T23:57:20.814Z,17.26
